Terminal Aerodrome Forecast
Issued by NWS Midland/Odessa, TX

Home | Current Version | Previous Version | Text Only | Print | Product List | Glossary On
Versions: 1 2 3 4 5 6 7 8 9 10 11 12 13 14 15 16 17 18 19 20 21
000
FTUS44 KMAF 282322 AAA
TAFMAF
TAF AMD
KMAF 282322Z 2823/2924 09010KT P6SM SCT045 SCT120 BKN200
      TEMPO 2900/2904 VRB25G35KT 6SM TSRA BKN040CB
     FM290400 11006KT P6SM FEW040 OVC060
     FM291000 06006KT P6SM OVC004
     FM291500 09008KT P6SM OVC019
     FM291800 07008KT P6SM OVC030=

USA.gov is the U.S. government's official web portal to all federal, state and local government web resources and services.